createdAt,value
2018-08-19T00:00:21.351Z,67.60
2018-08-19T00:02:48.888Z,67.50
2018-08-19T00:05:18.065Z,67.60
2018-08-19T00:07:46.507Z,67.70
2018-08-19T00:10:13.886Z,67.40
2018-08-19T00:12:45.058Z,67.60
2018-08-19T00:15:12.665Z,67.80
2018-08-19T00:17:41.156Z,68.10
2018-08-19T00:20:10.247Z,67.80
2018-08-19T00:22:37.687Z,67.90
2018-08-19T00:25:05.280Z,67.60
2018-08-19T00:27:34.720Z,67.50
2018-08-19T00:30:02.084Z,67.50
2018-08-19T00:32:29.447Z,68.00
2018-08-19T00:34:56.796Z,67.70
2018-08-19T00:37:24.131Z,67.70
2018-08-19T00:39:52.232Z,67.60
2018-08-19T00:42:19.601Z,67.50
2018-08-19T00:44:46.941Z,67.80
2018-08-19T00:47:14.386Z,68.00
2018-08-19T00:49:42.635Z,67.80
2018-08-19T00:52:09.996Z,67.90
2018-08-19T00:54:37.368Z,68.00
2018-08-19T00:57:07.247Z,67.60
2018-08-19T00:59:34.616Z,67.70
2018-08-19T01:02:01.996Z,67.70
2018-08-19T01:04:29.343Z,67.60
2018-08-19T01:06:57.980Z,67.20
2018-08-19T01:09:27.175Z,67.50
2018-08-19T01:11:54.555Z,67.50
2018-08-19T01:14:21.902Z,67.60
2018-08-19T01:16:49.261Z,67.60
2018-08-19T01:19:17.099Z,67.60
2018-08-19T01:21:47.593Z,67.50
2018-08-19T01:24:14.951Z,67.50
2018-08-19T01:26:42.524Z,67.50
2018-08-19T01:29:10.927Z,67.50
2018-08-19T01:31:38.342Z,67.70
2018-08-19T01:34:11.138Z,67.40
2018-08-19T01:36:38.517Z,68.20
2018-08-19T01:39:07.100Z,67.80
2018-08-19T01:41:35.168Z,67.80
2018-08-19T01:44:05.463Z,68.20
2018-08-19T01:46:36.030Z,68.10
2018-08-19T01:49:03.511Z,67.80
2018-08-19T01:51:30.871Z,67.90
2018-08-19T01:54:00.987Z,67.80
2018-08-19T01:56:28.316Z,68.50
2018-08-19T01:58:56.143Z,68.50
2018-08-19T02:01:29.083Z,68.20
2018-08-19T02:03:56.503Z,68.30
2018-08-19T02:06:23.880Z,68.40
2018-08-19T02:08:51.219Z,68.70
2018-08-19T02:11:28.131Z,68.50
2018-08-19T02:13:55.495Z,68.40
2018-08-19T02:16:22.836Z,68.10
2018-08-19T02:18:50.239Z,68.50
2018-08-19T02:21:17.607Z,68.30
2018-08-19T02:23:44.964Z,68.20
2018-08-19T02:26:16.895Z,68.40
2018-08-19T02:28:44.255Z,69.30
2018-08-19T02:31:11.609Z,68.40
2018-08-19T02:33:39.019Z,68.30
2018-08-19T02:36:07.377Z,68.20
2018-08-19T02:38:35.735Z,68.10
2018-08-19T02:41:03.508Z,69.10
2018-08-19T02:43:30.863Z,68.90
2018-08-19T02:45:58.255Z,68.80
2018-08-19T02:48:42.785Z,68.80
2018-08-19T02:51:12.035Z,68.70
2018-08-19T02:53:39.835Z,69.70
2018-08-19T02:56:07.196Z,69.20
2018-08-19T02:58:34.547Z,68.80
2018-08-19T03:01:01.892Z,69.20
2018-08-19T03:03:29.300Z,68.90
2018-08-19T03:05:59.327Z,68.60
2018-08-19T03:08:27.307Z,68.70
2018-08-19T03:10:54.651Z,69.30
2018-08-19T03:13:22.090Z,69.20
2018-08-19T03:15:51.398Z,69.30
2018-08-19T03:18:18.802Z,69.50
2018-08-19T03:20:46.155Z,69.20
2018-08-19T03:23:13.511Z,69.30
2018-08-19T03:25:40.859Z,69.50
2018-08-19T03:28:08.220Z,69.70
2018-08-19T03:30:35.567Z,69.70
2018-08-19T03:33:02.932Z,69.60
2018-08-19T03:35:30.334Z,69.60
2018-08-19T03:38:03.445Z,70.50
2018-08-19T03:40:30.795Z,70.30
2018-08-19T03:42:58.231Z,70.30
2018-08-19T03:45:25.874Z,70.10
2018-08-19T03:47:53.235Z,70.50
2018-08-19T03:50:22.743Z,70.40
2018-08-19T03:52:50.996Z,70.30
2018-08-19T03:55:24.088Z,70.30
2018-08-19T03:57:52.084Z,70.40
2018-08-19T04:00:19.779Z,71.60
2018-08-19T04:02:47.124Z,71.10
2018-08-19T04:05:14.507Z,71.10
2018-08-19T04:07:42.312Z,71.10
2018-08-19T04:10:09.988Z,70.80
2018-08-19T04:12:37.351Z,71.00
2018-08-19T04:15:07.047Z,71.40
2018-08-19T04:17:34.628Z,71.00
2018-08-19T04:20:02.038Z,70.50
2018-08-19T04:22:29.384Z,70.90
2018-08-19T04:24:56.741Z,71.70
2018-08-19T04:27:24.312Z,70.90
2018-08-19T04:29:58.538Z,71.20
2018-08-19T04:32:30.148Z,70.80
2018-08-19T04:34:57.619Z,72.10
2018-08-19T04:37:24.963Z,71.50
2018-08-19T04:39:52.336Z,71.30
2018-08-19T04:42:19.730Z,71.30
2018-08-19T04:44:47.039Z,71.20
2018-08-19T04:47:26.924Z,71.50
2018-08-19T04:49:54.559Z,73.10
2018-08-19T04:52:22.968Z,71.20
2018-08-19T04:54:51.342Z,71.60
2018-08-19T04:57:19.520Z,71.80
2018-08-19T04:59:46.986Z,71.70
2018-08-19T05:02:14.498Z,71.80
2018-08-19T05:04:41.729Z,72.10
2018-08-19T05:07:09.078Z,71.20
2018-08-19T05:09:36.448Z,71.60
2018-08-19T05:12:03.819Z,71.70
2018-08-19T05:14:31.631Z,70.80
2018-08-19T05:16:58.959Z,71.20
2018-08-19T05:19:26.308Z,71.60
2018-08-19T05:21:56.700Z,72.70
2018-08-19T05:24:24.041Z,72.50
2018-08-19T05:26:55.978Z,71.80
2018-08-19T05:29:23.339Z,71.70
2018-08-19T05:31:54.928Z,72.00
2018-08-19T05:34:27.814Z,72.10
2018-08-19T05:36:55.164Z,72.30
2018-08-19T05:39:22.531Z,71.90
2018-08-19T05:42:02.431Z,72.50
2018-08-19T05:44:32.041Z,71.90
2018-08-19T05:47:03.921Z,72.10
2018-08-19T05:49:33.101Z,72.20
2018-08-19T05:52:06.200Z,72.70
2018-08-19T05:54:38.137Z,72.90
2018-08-19T05:57:05.608Z,72.50
2018-08-19T05:59:33.568Z,72.70
2018-08-19T06:02:00.928Z,72.60
2018-08-19T06:04:28.361Z,71.90
2018-08-19T06:07:01.327Z,72.20
2018-08-19T06:09:28.685Z,73.00
2018-08-19T06:11:56.036Z,72.90
2018-08-19T06:14:23.397Z,72.30
2018-08-19T06:16:50.749Z,72.90
2018-08-19T06:19:18.133Z,72.90
2018-08-19T06:21:46.105Z,72.20
2018-08-19T06:24:13.439Z,72.90
2018-08-19T06:26:40.797Z,73.90
2018-08-19T06:29:08.219Z,72.50
2018-08-19T06:31:35.594Z,73.80
2018-08-19T06:34:02.951Z,72.70
2018-08-19T06:36:30.334Z,72.40
2018-08-19T06:38:57.630Z,73.40
2018-08-19T06:41:25.056Z,72.60
2018-08-19T06:43:52.431Z,72.60
2018-08-19T06:46:19.833Z,73.00
2018-08-19T06:48:47.199Z,72.90
2018-08-19T06:51:14.581Z,73.60
2018-08-19T06:53:41.923Z,73.60
2018-08-19T06:56:09.279Z,73.60
2018-08-19T06:58:36.640Z,73.90
2018-08-19T07:01:04.480Z,72.30
2018-08-19T07:03:32.079Z,73.00
2018-08-19T07:06:08.186Z,72.60
2018-08-19T07:08:35.551Z,73.60
2018-08-19T07:11:03.010Z,73.80
2018-08-19T07:13:30.409Z,73.70
2018-08-19T07:15:57.786Z,73.40
2018-08-19T07:18:25.142Z,73.00
2018-08-19T07:20:52.539Z,73.60
2018-08-19T07:23:19.932Z,73.80
2018-08-19T07:25:47.347Z,73.00
2018-08-19T07:28:15.981Z,73.90
2018-08-19T07:30:43.520Z,74.10
2018-08-19T07:33:11.410Z,75.20
2018-08-19T07:35:39.067Z,75.10
2018-08-19T07:38:06.493Z,74.70
2018-08-19T07:40:33.919Z,74.90
2018-08-19T07:43:01.359Z,74.20
2018-08-19T07:45:28.751Z,74.80
2018-08-19T07:47:56.243Z,74.60
2018-08-19T07:50:23.960Z,75.80
2018-08-19T07:52:52.256Z,76.30
2018-08-19T07:55:19.662Z,76.40
2018-08-19T07:57:47.063Z,75.60
2018-08-19T08:00:14.464Z,75.90
2018-08-19T08:02:41.955Z,76.10
2018-08-19T08:05:10.189Z,75.70
2018-08-19T08:07:41.990Z,75.90
2018-08-19T08:10:09.383Z,75.70
2018-08-19T08:12:36.760Z,75.30
2018-08-19T08:15:04.371Z,74.60
2018-08-19T08:17:31.751Z,75.60
2018-08-19T08:20:02.206Z,75.90
2018-08-19T08:22:30.365Z,77.10
2018-08-19T08:24:57.985Z,76.10
2018-08-19T08:27:25.436Z,75.10
2018-08-19T08:29:53.044Z,74.60
2018-08-19T08:32:20.397Z,75.30
2018-08-19T08:34:47.776Z,75.50
2018-08-19T08:37:15.163Z,74.60
2018-08-19T08:39:42.525Z,74.80
2018-08-19T08:42:09.894Z,74.60
2018-08-19T08:44:37.255Z,75.10
2018-08-19T08:47:07.211Z,75.00
2018-08-19T08:49:40.252Z,75.10
2018-08-19T08:52:14.481Z,76.40
2018-08-19T08:54:47.656Z,76.00
2018-08-19T08:57:15.035Z,77.20
2018-08-19T08:59:42.407Z,76.70
2018-08-19T09:02:09.791Z,76.00
2018-08-19T09:04:37.855Z,76.70
2018-08-19T09:07:05.285Z,76.50
2018-08-19T09:09:32.704Z,75.60
2018-08-19T09:12:00.088Z,75.60
2018-08-19T09:14:27.475Z,75.80
2018-08-19T09:16:54.866Z,75.10
2018-08-19T09:19:22.282Z,75.30
2018-08-19T09:21:49.661Z,75.40
2018-08-19T09:24:17.561Z,74.70
2018-08-19T09:26:45.017Z,74.80
2018-08-19T09:29:12.392Z,75.30
2018-08-19T09:31:39.825Z,75.20
2018-08-19T09:34:08.252Z,75.40
2018-08-19T09:36:35.639Z,75.30
2018-08-19T09:39:05.758Z,75.50
2018-08-19T09:41:33.175Z,75.40
2018-08-19T09:44:00.555Z,74.60
2018-08-19T09:46:27.988Z,75.00
2018-08-19T09:48:55.385Z,74.30
2018-08-19T09:51:22.768Z,74.50
2018-08-19T09:53:50.151Z,74.50
2018-08-19T09:56:20.187Z,74.60
2018-08-19T09:58:53.794Z,74.00
2018-08-19T10:01:27.199Z,73.90
2018-08-19T10:03:54.599Z,73.90
2018-08-19T10:06:22.117Z,74.00
2018-08-19T10:08:49.546Z,74.00
2018-08-19T10:11:16.954Z,74.00
2018-08-19T10:13:47.920Z,73.20
2018-08-19T10:16:15.282Z,72.80
2018-08-19T10:18:42.721Z,73.10
2018-08-19T10:21:17.415Z,72.00
2018-08-19T10:23:44.786Z,71.50
2018-08-19T10:26:12.179Z,71.00
2018-08-19T10:28:39.687Z,71.10
2018-08-19T10:31:15.614Z,71.90
2018-08-19T10:33:43.004Z,70.70
2018-08-19T10:36:10.474Z,71.40
2018-08-19T10:38:37.856Z,71.30
2018-08-19T10:41:05.246Z,70.20
2018-08-19T10:43:32.640Z,70.40
2018-08-19T10:46:00.019Z,70.60
2018-08-19T10:48:27.406Z,69.50
2018-08-19T10:50:54.806Z,69.70
2018-08-19T10:53:26.678Z,70.00
2018-08-19T10:55:57.175Z,69.40
2018-08-19T10:58:24.662Z,69.70
2018-08-19T11:00:52.530Z,69.10
2018-08-19T11:03:20.222Z,68.90
2018-08-19T11:05:49.247Z,69.50
2018-08-19T11:08:16.664Z,69.30
2018-08-19T11:10:44.029Z,70.20
2018-08-19T11:13:11.421Z,68.90
2018-08-19T11:15:43.979Z,68.30
2018-08-19T11:18:21.356Z,67.80
2018-08-19T11:20:49.087Z,68.70
2018-08-19T11:23:19.948Z,69.10
2018-08-19T11:25:48.083Z,68.70
2018-08-19T11:28:32.196Z,68.50
2018-08-19T11:30:59.583Z,67.40
2018-08-19T11:33:35.303Z,68.50
2018-08-19T11:36:03.815Z,68.00
2018-08-19T11:38:31.216Z,67.70
2018-08-19T11:41:00.132Z,68.30
2018-08-19T11:43:27.740Z,68.40
2018-08-19T11:45:55.032Z,67.30
2018-08-19T11:48:22.454Z,67.60
2018-08-19T11:50:49.846Z,67.00
2018-08-19T11:53:17.284Z,67.90
2018-08-19T11:55:44.679Z,67.00
2018-08-19T11:58:26.857Z,67.40
2018-08-19T12:01:00.382Z,66.80
2018-08-19T12:03:28.655Z,66.70
2018-08-19T12:05:56.195Z,66.20
2018-08-19T12:08:23.591Z,66.40
2018-08-19T12:10:55.568Z,65.90
2018-08-19T12:13:22.952Z,65.70
2018-08-19T12:15:50.323Z,66.10
2018-08-19T12:18:17.722Z,65.80
2018-08-19T12:20:45.117Z,65.20
2018-08-19T12:23:12.473Z,64.60
2018-08-19T12:25:39.868Z,64.20
2018-08-19T12:28:07.259Z,64.60
2018-08-19T12:30:34.651Z,64.90
2018-08-19T12:33:13.557Z,65.60
2018-08-19T12:35:40.943Z,65.40
2018-08-19T12:38:08.356Z,64.80
2018-08-19T12:40:40.283Z,64.30
2018-08-19T12:43:07.663Z,64.00
2018-08-19T12:45:35.065Z,63.60
2018-08-19T12:48:02.468Z,63.70
2018-08-19T12:50:29.832Z,62.10
2018-08-19T12:52:57.212Z,63.40
2018-08-19T12:55:26.488Z,63.10
2018-08-19T12:58:02.423Z,62.60
2018-08-19T13:00:30.136Z,63.70
2018-08-19T13:02:57.558Z,62.50
2018-08-19T13:05:24.980Z,62.30
2018-08-19T13:07:52.582Z,61.90
2018-08-19T13:10:20.307Z,61.30
2018-08-19T13:12:57.522Z,61.70
2018-08-19T13:15:28.444Z,61.80
2018-08-19T13:17:55.959Z,61.70
2018-08-19T13:20:23.475Z,62.00
2018-08-19T13:22:56.731Z,60.90
2018-08-19T13:25:24.642Z,60.90
2018-08-19T13:27:52.560Z,61.40
2018-08-19T13:30:21.155Z,61.80
2018-08-19T13:32:49.251Z,62.50
2018-08-19T13:35:18.188Z,62.00
2018-08-19T13:37:45.556Z,62.30
2018-08-19T13:40:13.467Z,62.50
2018-08-19T13:42:40.999Z,62.20
2018-08-19T13:45:14.888Z,61.50
2018-08-19T13:47:43.815Z,62.00
2018-08-19T13:50:11.690Z,62.10
2018-08-19T13:52:39.599Z,62.90
2018-08-19T13:55:09.406Z,63.40
2018-08-19T13:57:36.931Z,63.30
2018-08-19T14:00:09.472Z,62.20
2018-08-19T14:02:37.023Z,63.00
2018-08-19T14:05:04.422Z,63.10
2018-08-19T14:07:32.019Z,62.90
2018-08-19T14:09:59.633Z,63.60
2018-08-19T14:12:27.256Z,63.40
2018-08-19T14:14:54.685Z,63.10
2018-08-19T14:17:22.051Z,63.50
2018-08-19T14:19:49.422Z,63.40
2018-08-19T14:22:16.827Z,63.60
2018-08-19T14:24:44.407Z,63.80
2018-08-19T14:27:12.016Z,64.20
2018-08-19T14:29:39.631Z,64.00
2018-08-19T14:32:21.043Z,63.80
2018-08-19T14:34:48.413Z,63.30
2018-08-19T14:37:16.003Z,63.40
2018-08-19T14:39:44.625Z,64.00
2018-08-19T14:42:12.256Z,64.80
2018-08-19T14:44:39.876Z,65.20
2018-08-19T14:47:08.729Z,65.70
2018-08-19T14:49:36.654Z,65.70
2018-08-19T14:52:04.035Z,65.70
2018-08-19T14:54:31.621Z,66.70
2018-08-19T14:56:59.437Z,66.00
2018-08-19T14:59:27.059Z,66.10
2018-08-19T15:01:54.412Z,66.30
2018-08-19T15:04:22.064Z,66.40
2018-08-19T15:06:49.674Z,67.10
2018-08-19T15:09:24.652Z,67.40
2018-08-19T15:11:52.500Z,68.00
2018-08-19T15:14:21.082Z,67.70
2018-08-19T15:16:49.760Z,68.60
2018-08-19T15:19:18.556Z,68.00
2018-08-19T15:21:53.367Z,68.10
2018-08-19T15:24:20.727Z,67.80
2018-08-19T15:26:48.483Z,67.80
2018-08-19T15:29:20.407Z,67.60
2018-08-19T15:31:48.267Z,67.90
2018-08-19T15:34:15.799Z,67.90
2018-08-19T15:36:43.147Z,68.40
2018-08-19T15:39:10.811Z,68.70
2018-08-19T15:41:38.249Z,69.20
2018-08-19T15:44:05.908Z,69.30
2018-08-19T15:46:33.240Z,68.80
2018-08-19T15:49:00.613Z,68.80
2018-08-19T15:51:27.963Z,69.30
2018-08-19T15:53:55.352Z,68.90
2018-08-19T15:56:22.719Z,68.70
2018-08-19T15:58:50.196Z,68.90
2018-08-19T16:01:24.584Z,69.10
2018-08-19T16:03:53.795Z,69.30
2018-08-19T16:06:21.199Z,69.30
2018-08-19T16:08:48.581Z,69.50
2018-08-19T16:11:16.517Z,69.30
2018-08-19T16:13:45.411Z,69.30
2018-08-19T16:16:17.255Z,69.30
2018-08-19T16:18:44.681Z,69.20
2018-08-19T16:21:11.967Z,69.40
2018-08-19T16:23:39.635Z,69.30
2018-08-19T16:26:07.304Z,69.30
2018-08-19T16:28:34.655Z,69.80
2018-08-19T16:31:02.008Z,69.60
2018-08-19T16:33:29.743Z,69.60
2018-08-19T16:35:57.120Z,69.50
2018-08-19T16:38:24.791Z,70.00
2018-08-19T16:40:54.048Z,70.00
2018-08-19T16:43:21.727Z,69.70
2018-08-19T16:45:49.110Z,69.50
2018-08-19T16:48:16.468Z,69.90
2018-08-19T16:50:44.507Z,69.60
2018-08-19T16:53:11.863Z,69.70
2018-08-19T16:55:39.862Z,69.90
2018-08-19T16:58:07.231Z,69.80
2018-08-19T17:00:34.575Z,69.90
2018-08-19T17:03:16.898Z,69.70
2018-08-19T17:05:44.513Z,69.50
2018-08-19T17:08:12.191Z,69.70
2018-08-19T17:10:40.149Z,70.30
2018-08-19T17:13:07.509Z,70.80
2018-08-19T17:15:35.788Z,71.00
2018-08-19T17:18:09.528Z,71.10
2018-08-19T17:20:37.590Z,70.80
2018-08-19T17:23:06.197Z,70.40
2018-08-19T17:25:33.547Z,70.80
2018-08-19T17:28:07.568Z,70.80
2018-08-19T17:30:35.235Z,71.00
2018-08-19T17:33:08.772Z,71.40
2018-08-19T17:35:36.994Z,71.20
2018-08-19T17:38:04.347Z,71.50
2018-08-19T17:40:32.657Z,71.50
2018-08-19T17:43:01.545Z,71.80
2018-08-19T17:45:29.632Z,71.90
2018-08-19T17:47:58.251Z,72.60
2018-08-19T17:50:28.929Z,72.50
2018-08-19T17:52:58.970Z,72.30
2018-08-19T17:55:26.718Z,72.50
2018-08-19T17:57:55.493Z,72.20
2018-08-19T18:00:23.125Z,73.10
2018-08-19T18:02:51.052Z,73.30
2018-08-19T18:05:18.433Z,72.90
2018-08-19T18:07:48.030Z,73.00
2018-08-19T18:10:15.400Z,74.30
2018-08-19T18:12:42.768Z,73.70
2018-08-19T18:15:11.228Z,72.50
2018-08-19T18:17:39.039Z,73.40
2018-08-19T18:20:39.000Z,74.20
2018-08-19T18:23:12.629Z,73.20
2018-08-19T18:25:41.281Z,73.00
2018-08-19T18:28:15.204Z,73.10
2018-08-19T18:30:42.547Z,73.80
2018-08-19T18:33:10.407Z,73.80
2018-08-19T18:35:37.782Z,73.10
2018-08-19T18:38:11.274Z,73.50
2018-08-19T18:40:38.594Z,73.40
2018-08-19T18:43:06.440Z,74.00
2018-08-19T18:45:35.000Z,73.30
2018-08-19T18:48:02.926Z,73.50
2018-08-19T18:50:31.861Z,74.20
2018-08-19T18:53:00.376Z,73.20
2018-08-19T18:55:28.062Z,73.20
2018-08-19T18:57:56.544Z,73.20
2018-08-19T19:00:25.857Z,74.40
2018-08-19T19:02:59.140Z,73.80
2018-08-19T19:05:30.500Z,73.60
2018-08-19T19:08:02.996Z,73.60
2018-08-19T19:10:30.449Z,74.20
2018-08-19T19:12:58.220Z,73.90
2018-08-19T19:15:26.492Z,74.60
2018-08-19T19:17:55.309Z,74.00
2018-08-19T19:20:22.998Z,73.60
2018-08-19T19:23:03.568Z,73.80
2018-08-19T19:25:36.536Z,73.60
2018-08-19T19:28:06.050Z,74.00
2018-08-19T19:30:34.025Z,74.70
2018-08-19T19:33:10.424Z,74.70
2018-08-19T19:35:38.381Z,74.10
2018-08-19T19:38:07.264Z,74.80
2018-08-19T19:40:34.926Z,75.00
2018-08-19T19:43:02.470Z,74.60
2018-08-19T19:45:36.740Z,74.30
2018-08-19T19:48:04.666Z,74.60
2018-08-19T19:50:32.034Z,75.20
2018-08-19T19:52:59.402Z,75.50
2018-08-19T19:55:26.814Z,74.90
2018-08-19T19:57:54.440Z,75.40
2018-08-19T20:00:22.419Z,75.10
2018-08-19T20:02:49.789Z,74.70
2018-08-19T20:05:22.163Z,74.40
2018-08-19T20:07:50.976Z,74.60
2018-08-19T20:10:22.895Z,76.10
2018-08-19T20:12:50.839Z,75.00
2018-08-19T20:15:18.507Z,74.90
2018-08-19T20:17:45.878Z,75.20
2018-08-19T20:20:13.915Z,74.80
2018-08-19T20:22:41.281Z,75.50
2018-08-19T20:25:08.653Z,75.50
2018-08-19T20:27:37.239Z,75.10
2018-08-19T20:30:04.843Z,75.10
2018-08-19T20:32:32.493Z,76.00
2018-08-19T20:35:00.125Z,75.10
2018-08-19T20:37:29.943Z,75.30
2018-08-19T20:39:57.588Z,75.00
2018-08-19T20:42:25.023Z,75.00
2018-08-19T20:44:52.401Z,76.70
2018-08-19T20:47:19.751Z,75.30
2018-08-19T20:49:47.156Z,75.00
2018-08-19T20:52:14.680Z,75.40
2018-08-19T20:54:44.105Z,75.20
2018-08-19T20:57:11.569Z,75.90
2018-08-19T20:59:38.918Z,75.20
2018-08-19T21:02:07.727Z,75.60
2018-08-19T21:04:35.115Z,74.80
2018-08-19T21:07:03.671Z,74.80
2018-08-19T21:09:32.463Z,76.10
2018-08-19T21:11:59.896Z,75.10
2018-08-19T21:14:27.349Z,76.10
2018-08-19T21:16:54.728Z,76.20
2018-08-19T21:19:22.168Z,75.50
2018-08-19T21:21:50.428Z,75.90
2018-08-19T21:24:17.787Z,75.70
2018-08-19T21:26:49.726Z,75.80
2018-08-19T21:29:17.093Z,75.90
2018-08-19T21:31:44.423Z,76.30
2018-08-19T21:34:11.764Z,75.30
2018-08-19T21:36:39.231Z,75.10
2018-08-19T21:39:07.627Z,75.60
2018-08-19T21:41:46.572Z,76.50
2018-08-19T21:44:14.282Z,75.90
2018-08-19T21:46:41.663Z,75.80
2018-08-19T21:49:09.303Z,75.30
2018-08-19T21:51:36.751Z,76.00
2018-08-19T21:54:04.137Z,76.00
2018-08-19T21:56:31.514Z,75.90
2018-08-19T21:58:59.059Z,75.10
2018-08-19T22:01:32.054Z,76.50
2018-08-19T22:03:59.417Z,75.90
2018-08-19T22:06:26.772Z,75.30
2018-08-19T22:08:54.127Z,75.60
2018-08-19T22:11:21.489Z,77.40
2018-08-19T22:13:48.857Z,76.30
2018-08-19T22:16:16.218Z,75.60
2018-08-19T22:18:43.543Z,77.10
2018-08-19T22:21:15.436Z,76.60
2018-08-19T22:23:43.818Z,76.20
2018-08-19T22:26:12.325Z,76.40
2018-08-19T22:28:40.098Z,75.30
2018-08-19T22:31:19.719Z,76.10
2018-08-19T22:33:50.096Z,75.20
2018-08-19T22:36:18.169Z,75.50
2018-08-19T22:38:45.732Z,76.20
2018-08-19T22:41:13.092Z,76.90
2018-08-19T22:43:40.515Z,76.70
2018-08-19T22:46:07.879Z,76.40
2018-08-19T22:48:40.015Z,78.00
2018-08-19T22:51:07.774Z,76.30
2018-08-19T22:53:35.187Z,76.10
2018-08-19T22:56:02.816Z,75.60
2018-08-19T22:58:30.163Z,76.50
2018-08-19T23:00:57.512Z,76.40
2018-08-19T23:03:24.980Z,77.00
2018-08-19T23:05:52.376Z,76.30
2018-08-19T23:08:35.732Z,76.40
2018-08-19T23:11:03.618Z,75.90
2018-08-19T23:13:42.870Z,76.30
2018-08-19T23:16:11.115Z,75.70
2018-08-19T23:18:39.207Z,76.50
2018-08-19T23:21:06.938Z,76.60
2018-08-19T23:23:34.276Z,76.30
2018-08-19T23:26:02.091Z,75.90
2018-08-19T23:28:29.458Z,76.50
2018-08-19T23:30:57.048Z,75.90
2018-08-19T23:33:24.397Z,75.90
2018-08-19T23:35:51.791Z,76.50
2018-08-19T23:38:19.155Z,77.00
2018-08-19T23:40:46.584Z,76.70
2018-08-19T23:43:14.343Z,76.10
2018-08-19T23:45:41.695Z,77.20
2018-08-19T23:48:09.031Z,76.10
2018-08-19T23:50:37.500Z,77.30
2018-08-19T23:53:05.269Z,77.00
2018-08-19T23:55:32.636Z,76.20
2018-08-19T23:57:59.974Z,76.70
